Terminal Aerodrome Forecast
Issued by NWS

Home | Current Version | Previous Version | Text Only | Print | Product List | Glossary On
Versions: 1 2 3 4 5 6 7 8 9 10 11 12 13 14 15
908
FTUS43 KAPX 251737 AAB
TAFPLN
TAF AMD
KPLN 251737Z 2518/2618 14009KT P6SM SCT035 BKN070
     FM252000 14010G18KT P6SM BKN050
     FM260000 14011G19KT P6SM SCT035 BKN050 WS020/17035KT
     FM260300 15011G19KT 6SM SHRA SCT025 OVC040 WS020/17035KT
     FM260600 17011G18KT 6SM SHRA BKN015 OVC030 WS020/17035KT
     FM260800 17009G17KT 6SM SHRA BKN009 OVC025
     FM261300 20008G16KT P6SM OVC025
     FM261500 23011G20KT P6SM OVC025=

USA.gov is the U.S. government's official web portal to all federal, state and local government web resources and services.